Time;durP1;ratioP1;P1;durP2;ratioP2;P2;SDS_P1;SDS_P2;PMS_P1;PMS_P2;Temp;Humidity;BMP_temperature;BMP_pressure;BME280_temperature;BME280_humidity;BME280_pressure;Samples;Min_cycle;Max_cycle;Signal;HPM_P1;HPM_P2
2021/08/22 00:00:29;;;;;;;0.40;0.30;;;;;;;20.35;100.00;100138.03;5034148;28;20482;-88
2021/08/22 00:02:56;;;;;;;0.60;0.50;;;;;;;20.28;100.00;100136.72;5042637;28;20502;-87
2021/08/22 00:05:24;;;;;;;0.50;0.40;;;;;;;20.32;100.00;100139.13;5033696;28;20460;-87
2021/08/22 00:07:51;;;;;;;0.40;0.20;;;;;;;20.37;100.00;100136.94;5045248;28;20451;-87
2021/08/22 00:10:19;;;;;;;0.40;0.20;;;;;;;20.27;100.00;100130.47;5033428;28;20488;-88
2021/08/22 00:12:46;;;;;;;0.40;0.30;;;;;;;20.21;100.00;100139.03;5045999;28;20453;-87
2021/08/22 00:15:13;;;;;;;1.27;1.27;;;;;;;20.26;100.00;100136.84;5049890;28;20517;-88
2021/08/22 00:17:40;;;;;;;0.50;0.50;;;;;;;20.27;100.00;100132.31;5038812;28;20434;-87
2021/08/22 00:20:07;;;;;;;0.40;0.20;;;;;;;20.30;100.00;100142.91;5039919;28;20470;-87
2021/08/22 00:22:35;;;;;;;0.77;0.50;;;;;;;20.39;100.00;100150.34;5038167;28;20858;-87
2021/08/22 00:25:02;;;;;;;2.83;2.73;;;;;;;20.26;100.00;100150.34;5027340;28;20547;-87
2021/08/22 00:27:29;;;;;;;0.47;0.30;;;;;;;20.20;100.00;100148.09;5039778;28;20455;-87
2021/08/22 00:29:56;;;;;;;0.47;0.33;;;;;;;20.25;100.00;100134.25;5045887;28;20486;-88
2021/08/22 00:32:23;;;;;;;0.50;0.40;;;;;;;20.32;100.00;100138.25;5038535;28;20452;-87
2021/08/22 00:34:51;;;;;;;0.50;0.30;;;;;;;20.28;100.00;100164.59;5039725;28;20493;-87
2021/08/22 00:37:18;;;;;;;0.40;0.20;;;;;;;20.24;100.00;100160.41;5027636;28;20463;-87
2021/08/22 00:39:45;;;;;;;0.40;0.30;;;;;;;20.07;100.00;100149.94;5041309;28;20479;-87
2021/08/22 00:42:12;;;;;;;0.60;0.50;;;;;;;20.15;100.00;100161.06;5044876;28;20508;-86
2021/08/22 00:44:39;;;;;;;0.50;0.37;;;;;;;20.19;100.00;100161.69;5034112;28;20442;-88
2021/08/22 00:47:06;;;;;;;0.40;0.30;;;;;;;20.15;100.00;100160.16;5042920;28;20501;-86
2021/08/22 00:49:33;;;;;;;0.57;0.40;;;;;;;20.51;100.00;100159.44;5034487;28;20915;-87
2021/08/22 00:52:00;;;;;;;0.40;0.20;;;;;;;20.26;100.00;100150.34;5037823;28;20455;-87
2021/08/22 00:54:26;;;;;;;0.40;0.30;;;;;;;20.41;100.00;100143.88;5040345;28;20490;-87
2021/08/22 00:56:54;;;;;;;0.43;0.30;;;;;;;20.47;100.00;100141.75;5036222;28;20446;-86
2021/08/22 00:59:22;;;;;;;0.50;0.33;;;;;;;20.43;100.00;100137.53;5032552;28;20464;-86
2021/08/22 01:01:51;;;;;;;0.40;0.20;;;;;;;20.46;100.00;100143.56;5046955;28;20455;-86
2021/08/22 01:04:34;;;;;;;0.40;0.30;;;;;;;20.41;100.00;100153.78;5031251;28;20517;-87
2021/08/22 01:07:07;;;;;;;0.40;0.20;;;;;;;20.26;100.00;100153.03;5042198;28;20477;-87
2021/08/22 01:09:54;;;;;;;0.60;0.53;;;;;;;20.39;100.00;100159.31;5062161;28;20479;-87
2021/08/22 01:12:27;;;;;;;0.43;0.30;;;;;;;20.23;100.00;100155.97;5046847;28;20942;-87
2021/08/22 01:15:02;;;;;;;0.40;0.20;;;;;;;20.27;100.00;100153.91;5040816;28;20559;-86
2021/08/22 01:17:31;;;;;;;2.40;2.10;;;;;;;20.15;100.00;100146.69;5044189;28;20824;-87
2021/08/22 01:20:01;;;;;;;0.40;0.20;;;;;;;20.27;100.00;100162.88;5042231;28;20474;-86
2021/08/22 01:22:30;;;;;;;0.40;0.30;;;;;;;20.07;100.00;100149.94;5042035;28;20516;-86
2021/08/22 01:24:57;;;;;;;0.40;0.20;;;;;;;20.22;100.00;100162.34;5037827;28;20459;-87
2021/08/22 01:27:26;;;;;;;0.43;0.40;;;;;;;20.17;100.00;100153.72;5066385;28;20461;-87
2021/08/22 01:30:12;;;;;;;9.93;0.93;;;;;;;20.06;100.00;100165.25;5039766;28;20458;-87
2021/08/22 01:32:44;;;;;;;0.40;0.20;;;;;;;20.12;100.00;100158.56;5036270;28;20883;-87
2021/08/22 01:35:13;;;;;;;0.57;0.57;;;;;;;19.94;100.00;100163.41;5030599;28;20506;-87
2021/08/22 01:37:42;;;;;;;0.40;0.20;;;;;;;20.01;100.00;100162.03;5041451;28;20501;-86
2021/08/22 01:40:11;;;;;;;0.40;0.30;;;;;;;19.93;100.00;100167.09;5049703;28;20859;-87
2021/08/22 01:42:42;;;;;;;0.40;0.30;;;;;;;19.92;100.00;100159.09;5038429;28;20456;-86
2021/08/22 01:45:12;;;;;;;2.40;1.00;;;;;;;20.05;100.00;100168.06;5030380;28;20462;-86
2021/08/22 01:47:40;;;;;;;0.40;0.20;;;;;;;19.95;100.00;100164.28;5042983;28;20451;-87
2021/08/22 01:50:09;;;;;;;0.40;0.30;;;;;;;19.81;100.00;100160.69;5049355;28;20504;-87
2021/08/22 01:52:37;;;;;;;0.40;0.20;;;;;;;19.73;100.00;100172.97;5048930;28;20463;-87
2021/08/22 01:55:06;;;;;;;0.40;0.20;;;;;;;19.73;100.00;100173.84;5037959;28;20610;-87
2021/08/22 01:57:38;;;;;;;0.40;0.20;;;;;;;19.58;100.00;100171.31;5053804;28;20527;-86
2021/08/22 02:00:06;;;;;;;1.47;0.50;;;;;;;19.61;100.00;100176.53;5039047;28;20879;-87
2021/08/22 02:02:33;;;;;;;0.40;0.20;;;;;;;19.70;100.00;100167.78;5044827;28;20467;-87
2021/08/22 02:05:03;;;;;;;0.80;0.57;;;;;;;19.59;100.00;100173.91;5041364;28;20424;-86
2021/08/22 02:07:33;;;;;;;1.10;0.50;;;;;;;19.65;100.00;100165.41;5042652;28;20440;-87
2021/08/22 02:10:11;;;;;;;0.40;0.20;;;;;;;19.57;100.00;100156.97;5039645;28;20474;-88
2021/08/22 02:12:39;;;;;;;0.40;0.30;;;;;;;19.64;100.00;100165.53;5049027;28;20438;-86
2021/08/22 02:15:12;;;;;;;0.40;0.20;;;;;;;19.66;100.00;100167.16;5036481;28;20487;-88
2021/08/22 02:17:45;;;;;;;4.77;1.00;;;;;;;19.61;100.00;100165.75;5041968;28;20459;-86
2021/08/22 02:20:13;;;;;;;0.40;0.20;;;;;;;19.48;100.00;100163.84;5042556;28;20482;-87
2021/08/22 02:22:45;;;;;;;0.93;0.93;;;;;;;19.41;100.00;100167.03;5039884;28;20446;-86
2021/08/22 02:25:13;;;;;;;0.40;0.20;;;;;;;19.45;100.00;100174.81;5033877;28;20447;-86
2021/08/22 02:27:40;;;;;;;0.50;0.50;;;;;;;19.48;100.00;100177.31;5050836;28;20524;-86
2021/08/22 02:30:08;;;;;;;0.40;0.30;;;;;;;19.62;100.00;100173.72;5037749;28;20466;-86
2021/08/22 02:32:36;;;;;;;0.40;0.20;;;;;;;19.64;100.00;100174.47;5037811;28;20444;-86
2021/08/22 02:35:03;;;;;;;0.87;0.87;;;;;;;19.52;100.00;100173.44;5040891;28;20484;-87
2021/08/22 02:37:30;;;;;;;0.40;0.20;;;;;;;19.47;100.00;100169.34;5050152;28;20444;-87
2021/08/22 02:39:57;;;;;;;0.40;0.20;;;;;;;19.22;100.00;100165.56;5043377;28;20482;-86
2021/08/22 02:42:24;;;;;;;0.40;0.20;;;;;;;18.87;100.00;100158.94;5048214;28;20458;-86
2021/08/22 02:44:51;;;;;;;0.40;0.30;;;;;;;19.10;100.00;100163.69;5044057;28;20478;-86
2021/08/22 02:47:18;;;;;;;4.73;2.37;;;;;;;18.89;100.00;100163.25;5039853;28;20442;-85
2021/08/22 02:49:45;;;;;;;0.40;0.20;;;;;;;19.15;100.00;100174.16;5043812;28;20479;-86
2021/08/22 02:52:12;;;;;;;0.47;0.40;;;;;;;18.84;100.00;100172.59;5040227;28;20477;-86
2021/08/22 02:54:39;;;;;;;0.40;0.20;;;;;;;18.90;100.00;100170.38;5035178;28;20517;-86
2021/08/22 02:57:06;;;;;;;0.40;0.20;;;;;;;18.94;100.00;100160.28;5036445;28;20478;-86
2021/08/22 02:59:33;;;;;;;0.40;0.20;;;;;;;19.01;100.00;100169.66;5041865;28;20525;-86
2021/08/22 03:02:00;;;;;;;0.70;0.70;;;;;;;19.04;100.00;100177.56;5027696;28;20507;-87
2021/08/22 03:04:27;;;;;;;0.70;0.30;;;;;;;19.18;100.00;100173.94;5046362;28;20458;-86
2021/08/22 03:06:54;;;;;;;0.40;0.30;;;;;;;19.12;100.00;100164.44;5036878;28;20448;-86
2021/08/22 03:09:21;;;;;;;0.40;0.20;;;;;;;19.23;100.00;100178.09;5041519;28;20468;-86
2021/08/22 03:11:48;;;;;;;0.40;0.20;;;;;;;19.26;100.00;100170.75;5033214;28;20512;-86
2021/08/22 03:14:15;;;;;;;0.97;0.97;;;;;;;19.26;100.00;100171.63;5042178;28;20483;-86
2021/08/22 03:16:42;;;;;;;0.40;0.20;;;;;;;19.14;100.00;100173.28;5034381;28;20460;-86
2021/08/22 03:19:09;;;;;;;0.40;0.20;;;;;;;19.01;100.00;100168.81;5038414;28;20452;-86
2021/08/22 03:21:37;;;;;;;0.67;0.67;;;;;;;18.79;100.00;100164.84;5025666;28;20456;-86
2021/08/22 03:24:06;;;;;;;0.40;0.30;;;;;;;19.00;100.00;100170.63;5039378;28;20456;-86
2021/08/22 03:26:34;;;;;;;1.93;0.80;;;;;;;18.87;100.00;100164.31;5038131;28;20451;-86
2021/08/22 03:29:01;;;;;;;0.40;0.20;;;;;;;18.80;100.00;100160.31;5035846;28;20489;-86
2021/08/22 03:31:27;;;;;;;0.40;0.20;;;;;;;18.72;100.00;100151.84;5045183;28;20508;-86
2021/08/22 03:33:54;;;;;;;0.40;0.20;;;;;;;18.72;100.00;100151.84;5034349;28;20867;-86
2021/08/22 03:36:21;;;;;;;0.73;0.73;;;;;;;18.55;100.00;100145.69;5036527;28;20509;-86
2021/08/22 03:38:48;;;;;;;0.40;0.30;;;;;;;18.59;100.00;100151.72;5038794;28;20452;-85
2021/08/22 03:41:16;;;;;;;0.40;0.20;;;;;;;18.40;100.00;100165.50;5044319;28;20496;-86
2021/08/22 03:43:43;;;;;;;0.40;0.20;;;;;;;18.14;100.00;100159.06;5052016;28;20954;-86
2021/08/22 03:46:10;;;;;;;0.40;0.20;;;;;;;18.23;100.00;100168.41;5052915;28;20451;-86
2021/08/22 03:48:37;;;;;;;0.40;0.20;;;;;;;18.20;100.00;100171.25;5033729;28;20460;-85
2021/08/22 03:51:04;;;;;;;2.37;2.27;;;;;;;18.44;100.00;100177.81;5031517;28;20466;-86
2021/08/22 03:53:31;;;;;;;0.40;0.20;;;;;;;18.53;100.00;100176.38;5031768;28;20481;-85
2021/08/22 03:55:57;;;;;;;0.40;0.20;;;;;;;18.27;100.00;100165.41;5035166;28;20927;-85
2021/08/22 03:58:24;;;;;;;0.40;0.20;;;;;;;17.88;100.00;100176.78;5034104;28;20451;-85
2021/08/22 04:00:52;;;;;;;0.40;0.30;;;;;;;18.02;100.00;100179.50;5039977;28;20470;-85
2021/08/22 04:03:19;;;;;;;0.40;0.20;;;;;;;17.97;100.00;100172.69;5048229;28;20459;-85
2021/08/22 04:05:46;;;;;;;0.40;0.30;;;;;;;18.04;100.00;100169.50;5036861;28;20447;-84
2021/08/22 04:08:14;;;;;;;2.97;1.37;;;;;;;17.93;100.00;100171.13;5041559;28;20454;-85
2021/08/22 04:10:42;;;;;;;0.50;0.50;;;;;;;17.92;100.00;100164.88;5034297;28;20538;-86
2021/08/22 04:13:10;;;;;;;0.40;0.20;;;;;;;18.11;100.00;100153.00;5039831;28;20501;-85
2021/08/22 04:15:37;;;;;;;0.50;0.50;;;;;;;18.11;100.00;100164.63;5037148;28;20514;-85
2021/08/22 04:18:05;;;;;;;0.40;0.30;;;;;;;18.01;100.00;100179.59;5034963;28;20866;-84
2021/08/22 04:20:32;;;;;;;0.40;0.20;;;;;;;17.65;100.00;100164.69;5038000;28;21053;-84
2021/08/22 04:22:59;;;;;;;0.40;0.20;;;;;;;17.59;100.00;100170.44;5039169;28;20508;-84
2021/08/22 04:25:26;;;;;;;0.40;0.20;;;;;;;17.57;100.00;100184.94;5034492;28;20459;-84
2021/08/22 04:27:53;;;;;;;0.40;0.20;;;;;;;17.60;100.00;100188.31;5034369;28;20481;-84
2021/08/22 04:30:20;;;;;;;0.40;0.20;;;;;;;17.67;100.00;100191.47;5032290;28;21185;-85
2021/08/22 04:32:47;;;;;;;0.40;0.20;;;;;;;17.73;100.00;100194.72;5038530;28;20455;-85
2021/08/22 04:35:14;;;;;;;1.30;1.30;;;;;;;17.88;100.00;100197.44;5041990;28;20497;-85
2021/08/22 04:37:42;;;;;;;0.40;0.20;;;;;;;17.94;100.00;100197.91;5027450;28;21006;-85
2021/08/22 04:40:15;;;;;;;0.50;0.40;;;;;;;17.93;100.00;100190.81;5040487;28;20528;-85
2021/08/22 04:42:42;;;;;;;0.40;0.30;;;;;;;17.84;100.00;100188.69;5033559;28;20467;-84
2021/08/22 04:45:12;;;;;;;0.40;0.20;;;;;;;17.96;100.00;100196.03;5043373;28;20443;-84
2021/08/22 04:47:39;;;;;;;0.40;0.30;;;;;;;17.88;100.00;100192.94;5042844;28;20455;-85
2021/08/22 04:50:06;;;;;;;0.40;0.20;;;;;;;18.00;100.00;100197.56;5036531;28;20549;-85
2021/08/22 04:52:34;;;;;;;0.40;0.20;;;;;;;17.98;100.00;100199.50;5042011;28;20443;-85
2021/08/22 04:55:04;;;;;;;0.40;0.20;;;;;;;17.83;100.00;100202.25;5033932;28;20483;-84
2021/08/22 04:57:33;;;;;;;0.40;0.20;;;;;;;17.69;100.00;100195.88;5055321;28;20446;-84
2021/08/22 05:00:01;;;;;;;24.17;0.83;;;;;;;17.88;100.00;100206.38;5041466;28;20470;-84
2021/08/22 05:02:28;;;;;;;0.40;0.30;;;;;;;17.99;100.00;100192.28;5037571;28;20512;-84
2021/08/22 05:04:55;;;;;;;0.50;0.40;;;;;;;18.15;100.00;100198.44;5042406;28;20465;-85
2021/08/22 05:07:22;;;;;;;0.40;0.20;;;;;;;18.30;100.00;100188.56;5043630;28;20446;-87
2021/08/22 05:09:49;;;;;;;0.40;0.20;;;;;;;18.28;100.00;100191.34;5031980;28;20470;-85
2021/08/22 05:12:15;;;;;;;0.40;0.20;;;;;;;18.32;100.00;100192.03;5054470;28;20504;-86
2021/08/22 05:14:43;;;;;;;7.93;1.57;;;;;;;18.60;100.00;100199.22;5035435;28;20548;-84
2021/08/22 05:17:11;;;;;;;0.40;0.20;;;;;;;18.91;100.00;100201.75;5028916;28;20480;-83
2021/08/22 05:19:38;;;;;;;0.40;0.20;;;;;;;19.41;100.00;100208.34;5052933;28;20504;-83
2021/08/22 05:22:05;;;;;;;0.40;0.20;;;;;;;19.44;100.00;100216.22;5036810;28;20481;-83
2021/08/22 05:24:32;;;;;;;0.50;0.40;;;;;;;19.82;100.00;100212.81;5027393;28;20881;-84
2021/08/22 05:26:59;;;;;;;0.60;0.60;;;;;;;20.02;100.00;100209.63;5037855;28;20512;-83
2021/08/22 05:29:30;;;;;;;0.40;0.30;;;;;;;20.06;100.00;100218.38;5034122;28;20470;-83
2021/08/22 05:31:57;;;;;;;0.40;0.20;;;;;;;19.96;100.00;100215.44;5035288;28;20513;-83
2021/08/22 05:34:25;;;;;;;1.23;0.47;;;;;;;19.66;100.00;100221.09;5029868;28;20459;-83
2021/08/22 05:36:52;;;;;;;0.43;0.30;;;;;;;19.56;100.00;100232.59;5054980;28;20454;-83
2021/08/22 05:39:19;;;;;;;0.57;0.50;;;;;;;19.39;100.00;100210.28;5030111;28;20452;-83
2021/08/22 05:41:46;;;;;;;0.40;0.20;;;;;;;19.34;100.00;100219.66;5045756;23;20502;-79
2021/08/22 05:44:13;;;;;;;0.87;0.87;;;;;;;19.40;100.00;100225.47;5032055;28;20479;-79
2021/08/22 05:46:40;;;;;;;1.53;0.73;;;;;;;19.53;100.00;100225.53;5014605;28;20448;-79
2021/08/22 05:49:07;;;;;;;2.60;1.60;;;;;;;19.51;100.00;100236.44;5022908;28;20447;-80
2021/08/22 05:51:34;;;;;;;0.40;0.20;;;;;;;19.68;100.00;100237.16;5035418;28;20475;-80
2021/08/22 05:54:01;;;;;;;0.40;0.20;;;;;;;19.87;100.00;100236.78;5006977;28;20894;-79
2021/08/22 05:56:28;;;;;;;0.40;0.20;;;;;;;19.80;100.00;100242.59;5011394;28;20481;-79
2021/08/22 05:58:54;;;;;;;0.50;0.50;;;;;;;19.70;100.00;100251.41;5017494;28;20457;-79
2021/08/22 06:01:21;;;;;;;0.70;0.70;;;;;;;19.87;100.00;100256.53;5010091;28;20490;-80
2021/08/22 06:03:49;;;;;;;0.47;0.40;;;;;;;19.87;100.00;100266.44;5022313;28;20526;-80
2021/08/22 06:06:16;;;;;;;0.40;0.20;;;;;;;19.90;100.00;100260.88;5019417;28;20451;-80
2021/08/22 06:08:43;;;;;;;0.67;0.67;;;;;;;20.08;100.00;100268.56;5020073;28;20468;-81
2021/08/22 06:11:09;;;;;;;1.17;1.17;;;;;;;20.11;100.00;100264.78;5043521;28;20460;-81
2021/08/22 06:13:36;;;;;;;3.30;1.13;;;;;;;20.11;100.00;100262.94;5031317;28;20582;-80
2021/08/22 06:16:04;;;;;;;1.20;1.20;;;;;;;20.37;100.00;100274.66;5037052;28;20574;-81
2021/08/22 06:18:31;;;;;;;0.40;0.20;;;;;;;20.38;100.00;100280.91;5017387;28;20451;-80
2021/08/22 06:20:58;;;;;;;4.10;0.90;;;;;;;20.33;100.00;100275.84;5008661;28;20430;-81
2021/08/22 06:23:25;;;;;;;0.83;0.83;;;;;;;20.49;100.00;100283.78;5013235;28;20472;-81
2021/08/22 06:25:52;;;;;;;0.63;0.63;;;;;;;20.64;100.00;100279.13;5015067;28;20449;-81
2021/08/22 06:28:19;;;;;;;0.50;0.30;;;;;;;20.59;100.00;100279.47;5021588;28;20456;-80
2021/08/22 06:30:46;;;;;;;0.40;0.20;;;;;;;20.87;100.00;100299.13;5042314;28;20477;-80
2021/08/22 06:33:13;;;;;;;0.40;0.20;;;;;;;20.86;100.00;100284.75;5005864;28;20526;-81
2021/08/22 06:35:40;;;;;;;0.40;0.20;;;;;;;20.93;100.00;100286.03;5032436;28;20857;-80
2021/08/22 06:38:07;;;;;;;0.40;0.30;;;;;;;20.93;100.00;100291.44;5025168;28;20840;-81
2021/08/22 06:40:34;;;;;;;1.23;1.03;;;;;;;20.98;100.00;100286.59;5022212;28;20467;-81
2021/08/22 06:43:01;;;;;;;0.40;0.20;;;;;;;21.18;100.00;100295.09;5032983;28;21957;-80
2021/08/22 06:45:27;;;;;;;0.40;0.20;;;;;;;21.16;100.00;100294.34;5048624;28;20842;-81
2021/08/22 06:47:54;;;;;;;0.50;0.40;;;;;;;21.11;100.00;100291.13;5035875;28;20460;-81
2021/08/22 06:50:24;;;;;;;0.40;0.20;;;;;;;21.19;100.00;100294.97;5030966;28;20817;-81
2021/08/22 06:52:52;;;;;;;0.47;0.30;;;;;;;21.24;100.00;100298.22;5034855;28;20486;-81
2021/08/22 06:55:20;;;;;;;0.50;0.40;;;;;;;21.28;100.00;100296.19;5037516;28;20484;-81
2021/08/22 06:57:48;;;;;;;2.27;2.20;;;;;;;21.23;100.00;100301.00;5007602;28;20456;-81
2021/08/22 07:00:15;;;;;;;0.40;0.20;;;;;;;21.12;100.00;100287.44;5030193;28;20440;-81
2021/08/22 07:02:44;;;;;;;0.40;0.20;;;;;;;21.28;100.00;100298.88;5006614;28;20459;-81
2021/08/22 07:05:12;;;;;;;0.73;0.73;;;;;;;21.18;100.00;100293.25;5045827;28;20514;-81
2021/08/22 07:07:39;;;;;;;0.40;0.20;;;;;;;21.08;100.00;100291.31;5038926;28;20459;-80
2021/08/22 07:10:07;;;;;;;0.40;0.30;;;;;;;21.13;100.00;100294.56;5011250;28;20448;-81
2021/08/22 07:12:35;;;;;;;0.40;0.30;;;;;;;21.07;100.00;100295.00;5006325;28;20860;-80
2021/08/22 07:15:02;;;;;;;0.40;0.30;;;;;;;20.97;100.00;100294.81;5051996;28;20466;-80
2021/08/22 07:17:30;;;;;;;0.50;0.30;;;;;;;21.03;100.00;100302.47;5019824;28;20528;-80
2021/08/22 07:19:56;;;;;;;0.40;0.30;;;;;;;20.99;100.00;100301.81;5037252;28;20478;-80
2021/08/22 07:22:23;;;;;;;0.70;0.70;;;;;;;21.05;100.00;100289.69;5015331;28;20485;-80
2021/08/22 07:24:50;;;;;;;0.40;0.20;;;;;;;21.07;100.00;100284.19;5015765;28;20504;-80
2021/08/22 07:27:20;;;;;;;0.50;0.40;;;;;;;21.03;100.00;100297.06;5033828;28;20446;-80
2021/08/22 07:29:47;;;;;;;0.50;0.50;;;;;;;20.95;100.00;100285.91;5022140;28;20431;-81
2021/08/22 07:32:14;;;;;;;0.50;0.30;;;;;;;21.11;100.00;100294.69;5027581;28;20463;-80
2021/08/22 07:34:41;;;;;;;0.40;0.30;;;;;;;21.11;100.00;100291.13;5009433;28;20971;-80
2021/08/22 07:37:08;;;;;;;0.40;0.27;;;;;;;20.94;100.00;100303.97;5028785;28;20491;-80
2021/08/22 07:39:35;;;;;;;0.40;0.20;;;;;;;20.97;100.00;100301.06;5020737;28;20463;-80
2021/08/22 07:42:03;;;;;;;0.40;0.23;;;;;;;21.06;100.00;100293.25;5052534;28;20527;-81
2021/08/22 07:44:30;;;;;;;0.40;0.30;;;;;;;21.24;100.00;100284.69;5010326;28;20479;-80
2021/08/22 07:46:57;;;;;;;0.50;0.50;;;;;;;21.29;100.00;100289.81;5024820;28;20440;-81
2021/08/22 07:49:24;;;;;;;0.77;0.77;;;;;;;21.38;100.00;100288.25;5023657;28;20451;-81
2021/08/22 07:51:51;;;;;;;0.40;0.30;;;;;;;21.40;100.00;100289.88;5009383;28;20459;-80
2021/08/22 07:54:18;;;;;;;0.50;0.40;;;;;;;21.58;100.00;100288.50;5024233;28;20475;-80
2021/08/22 07:56:45;;;;;;;0.87;0.83;;;;;;;21.38;100.00;100286.44;5044754;28;20522;-80
2021/08/22 07:59:12;;;;;;;0.40;0.30;;;;;;;21.34;100.00;100273.22;5029696;28;20454;-81
2021/08/22 08:01:39;;;;;;;0.40;0.20;;;;;;;21.41;100.00;100275.38;5008060;28;20861;-80
2021/08/22 08:04:07;;;;;;;0.40;0.20;;;;;;;21.57;100.00;100284.09;5051574;28;21053;-80
2021/08/22 08:06:34;;;;;;;1.37;1.37;;;;;;;21.44;100.00;100275.16;5052483;28;20444;-81
2021/08/22 08:09:01;;;;;;;0.40;0.30;;;;;;;21.54;100.00;100287.03;5013245;28;20550;-80
2021/08/22 08:11:28;;;;;;;0.40;0.30;;;;;;;21.64;100.00;100289.03;5029676;28;20463;-80
2021/08/22 08:13:55;;;;;;;1.10;0.73;;;;;;;21.63;100.00;100293.56;5022400;28;20479;-80
2021/08/22 08:16:22;;;;;;;0.43;0.37;;;;;;;21.87;100.00;100296.28;5018676;28;20454;-80
2021/08/22 08:18:49;;;;;;;0.40;0.30;;;;;;;21.85;100.00;100301.81;5035754;28;20456;-80
2021/08/22 08:21:16;;;;;;;2.43;0.53;;;;;;;21.90;100.00;100306.88;5025960;28;20474;-79
2021/08/22 08:23:43;;;;;;;0.53;0.53;;;;;;;21.89;100.00;100294.31;5021357;28;20487;-81
2021/08/22 08:26:10;;;;;;;0.40;0.20;;;;;;;21.85;100.00;100303.66;5018031;28;20888;-80
2021/08/22 08:28:38;;;;;;;0.40;0.27;;;;;;;22.01;100.00;100298.81;5040904;28;20505;-80
2021/08/22 08:31:05;;;;;;;0.50;0.50;;;;;;;22.01;100.00;100300.66;5019427;28;20463;-80
2021/08/22 08:33:32;;;;;;;0.40;0.20;;;;;;;22.06;100.00;100307.47;5028173;28;20578;-80
2021/08/22 08:35:59;;;;;;;0.40;0.30;;;;;;;21.95;100.00;100303.84;5009274;28;20496;-80
2021/08/22 08:38:26;;;;;;;0.40;0.30;;;;;;;21.95;100.00;100290.31;5022985;28;20448;-80
2021/08/22 08:40:53;;;;;;;0.53;0.50;;;;;;;21.93;100.00;100295.84;5018890;28;20475;-80
2021/08/22 08:43:23;;;;;;;0.97;0.97;;;;;;;22.09;100.00;100299.13;5050974;28;20533;-80
2021/08/22 08:45:50;;;;;;;0.40;0.27;;;;;;;22.17;100.00;100296.69;5007404;28;20456;-80
2021/08/22 08:48:25;;;;;;;0.40;0.20;;;;;;;22.05;100.00;100300.34;5018064;28;21008;-80
2021/08/22 08:50:58;;;;;;;0.40;0.20;;;;;;;22.17;100.00;100301.25;5005499;28;20941;-80
2021/08/22 08:53:29;;;;;;;0.50;0.43;;;;;;;22.21;100.00;100318.16;5036314;28;20463;-80
2021/08/22 08:56:11;;;;;;;0.40;0.30;;;;;;;22.26;100.00;100305.09;5004684;28;20520;-80
2021/08/22 08:58:38;;;;;;;2.43;0.97;;;;;;;22.30;100.00;100306.59;5018914;28;20451;-80
2021/08/22 09:01:05;;;;;;;0.40;0.30;;;;;;;22.30;100.00;100303.88;5051514;28;20444;-80
2021/08/22 09:03:35;;;;;;;0.40;0.30;;;;;;;22.37;100.00;100306.00;5007943;28;20468;-80
2021/08/22 09:06:05;;;;;;;0.40;0.30;;;;;;;22.28;100.00;100317.53;5017363;28;20447;-80
2021/08/22 09:08:44;;;;;;;1.47;1.17;;;;;;;22.30;100.00;100309.28;5024820;28;20796;-80
2021/08/22 09:11:48;;;;;;;2.63;2.40;;;;;;;22.26;97.90;100305.97;5006254;28;20998;-80
2021/08/22 09:14:43;;;;;;;0.40;0.20;;;;;;;22.45;100.00;100310.81;5013275;28;20472;-80
2021/08/22 09:17:48;;;;;;;0.40;0.20;;;;;;;22.44;99.64;100318.06;5014760;28;21034;-80
2021/08/22 09:20:49;;;;;;;0.40;0.20;;;;;;;22.49;100.00;100325.88;5036254;28;20529;-80
2021/08/22 09:23:24;;;;;;;0.67;0.67;;;;;;;22.67;99.96;100328.97;5005299;28;20460;-80
2021/08/22 09:26:16;;;;;;;0.40;0.20;;;;;;;22.55;99.72;100338.94;4999172;28;20540;-80
2021/08/22 09:29:20;;;;;;;0.50;0.30;;;;;;;22.60;99.32;100339.41;5011115;28;20483;-80
2021/08/22 09:32:25;;;;;;;0.50;0.40;;;;;;;22.53;100.00;100330.06;5049332;28;20498;-80
2021/08/22 09:35:14;;;;;;;0.40;0.20;;;;;;;22.68;99.59;100330.72;5016960;28;20475;-80
2021/08/22 09:38:32;;;;;;;0.40;0.20;;;;;;;22.57;100.00;100322.53;5022089;28;20999;-80
2021/08/22 09:41:14;;;;;;;0.40;0.30;;;;;;;22.45;100.00;100319.81;5009596;28;20468;-80
2021/08/22 09:44:05;;;;;;;0.50;0.40;;;;;;;22.38;100.00;100317.72;5010517;28;20438;-80
2021/08/22 09:46:48;;;;;;;0.40;0.20;;;;;;;22.71;100.00;100316.91;5017767;28;20463;-80
2021/08/22 09:49:52;;;;;;;0.40;0.20;;;;;;;22.89;100.00;100320.94;5015524;28;20434;-80
2021/08/22 09:53:04;;;;;;;0.53;0.53;;;;;;;22.97;98.09;100309.47;5032087;28;20833;-80
2021/08/22 09:55:58;;;;;;;0.50;0.40;;;;;;;22.88;100.00;100310.19;4920555;29;20459;-80
2021/08/22 09:58:34;;;;;;;0.40;0.30;;;;;;;22.71;100.00;100315.06;4926426;29;20916;-80
2021/08/22 10:01:41;;;;;;;0.77;0.77;;;;;;;22.60;100.00;100306.91;5006138;28;20526;-80
2021/08/22 10:04:27;;;;;;;0.40;0.20;;;;;;;22.67;99.48;100310.00;5005828;28;20466;-80
2021/08/22 10:07:20;;;;;;;0.40;0.30;;;;;;;23.07;98.87;100307.75;5039701;28;20418;-80
2021/08/22 10:09:57;;;;;;;0.43;0.27;;;;;;;23.04;98.53;100302.56;5021919;28;20422;-80
2021/08/22 10:12:24;;;;;;;0.40;0.20;;;;;;;23.01;97.60;100300.94;5008486;28;20454;-80
2021/08/22 10:14:51;;;;;;;0.50;0.40;;;;;;;23.12;97.31;100296.50;5027767;28;20476;-79
2021/08/22 10:17:22;;;;;;;0.40;0.27;;;;;;;22.89;97.31;100296.53;5019012;28;20494;-79
2021/08/22 10:19:50;;;;;;;1.90;1.07;;;;;;;22.69;96.63;100295.34;5038631;28;20460;-79
2021/08/22 10:22:33;;;;;;;0.40;0.30;;;;;;;22.78;97.65;100301.91;5025576;28;20453;-79
2021/08/22 10:25:05;;;;;;;0.40;0.30;;;;;;;22.89;98.20;100301.06;5023559;28;20414;-79
2021/08/22 10:27:32;;;;;;;0.40;0.27;;;;;;;23.02;97.75;100293.66;5027303;28;20873;-79
2021/08/22 10:30:03;;;;;;;0.40;0.20;;;;;;;23.16;96.78;100293.41;5036649;28;20515;-79
2021/08/22 10:32:31;;;;;;;0.40;0.20;;;;;;;23.19;95.92;100290.47;5021381;28;20473;-79
2021/08/22 10:35:13;;;;;;;0.40;0.30;;;;;;;23.28;95.44;100281.56;5014546;28;20953;-79
2021/08/22 10:37:44;;;;;;;0.83;0.83;;;;;;;23.14;93.36;100280.97;5007132;28;20590;-80
2021/08/22 10:40:23;;;;;;;17.50;1.27;;;;;;;23.22;91.50;100278.53;5004711;28;20468;-79
2021/08/22 10:43:05;;;;;;;0.40;0.20;;;;;;;23.33;93.62;100278.50;5018643;28;20869;-79
2021/08/22 10:45:45;;;;;;;0.50;0.50;;;;;;;23.22;95.84;100276.66;5027200;28;20423;-79
2021/08/22 10:48:21;;;;;;;0.40;0.20;;;;;;;22.93;94.46;100276.31;5015906;28;20451;-79
2021/08/22 10:50:58;;;;;;;0.40;0.20;;;;;;;22.76;95.15;100285.78;5024354;28;20473;-79
2021/08/22 10:53:29;;;;;;;0.40;0.20;;;;;;;22.73;94.62;100290.53;5005710;28;20502;-79
2021/08/22 10:55:58;;;;;;;0.40;0.30;;;;;;;22.80;93.20;100288.22;5017466;28;20444;-79
2021/08/22 10:58:56;;;;;;;1.27;0.63;;;;;;;22.67;93.17;100294.63;5007915;28;20498;-79
2021/08/22 11:01:23;;;;;;;0.50;0.40;;;;;;;22.76;93.77;100283.06;5019186;28;20415;-78
2021/08/22 11:04:07;;;;;;;2.00;1.17;;;;;;;23.12;92.41;100275.69;5006183;28;20431;-79
2021/08/22 11:06:56;;;;;;;0.40;0.20;;;;;;;23.43;89.61;100274.03;5007654;28;20929;-79
2021/08/22 11:09:40;;;;;;;0.40;0.20;;;;;;;23.67;89.44;100265.75;5043894;28;20490;-78
2021/08/22 11:12:30;;;;;;;0.40;0.30;;;;;;;23.77;88.30;100274.00;5020705;28;20523;-79
2021/08/22 11:14:59;;;;;;;7.10;1.30;;;;;;;23.93;87.22;100269.84;5025152;28;20441;-78
2021/08/22 11:17:27;;;;;;;2.00;1.00;;;;;;;24.00;87.87;100280.22;5017030;28;20512;-79
2021/08/22 11:20:13;;;;;;;0.90;0.90;;;;;;;23.99;87.23;100281.22;5037318;28;20423;-79
2021/08/22 11:22:41;;;;;;;0.40;0.30;;;;;;;23.97;87.58;100269.59;5011977;28;20422;-79
2021/08/22 11:25:09;;;;;;;0.60;0.50;;;;;;;23.61;88.08;100261.69;5010896;28;21002;-79
2021/08/22 11:27:37;;;;;;;11.17;2.60;;;;;;;23.33;97.22;100249.53;5028802;28;20426;-79
2021/08/22 11:30:09;;;;;;;0.50;0.30;;;;;;;22.83;100.00;100253.63;5037565;28;20429;-79
2021/08/22 11:32:38;;;;;;;0.50;0.40;;;;;;;22.50;100.00;100265.28;5029322;28;20430;-79
2021/08/22 11:35:24;;;;;;;0.50;0.40;;;;;;;22.23;100.00;100259.31;5035978;28;20456;-79